Time;durP1;ratioP1;P1;durP2;ratioP2;P2;SDS_P1;SDS_P2;PMS_P1;PMS_P2;Temp;Humidity;BMP_temperature;BMP_pressure;BME280_temperature;BME280_humidity;BME280_pressure;Samples;Min_cycle;Max_cycle;Signal;HPM_P1;HPM_P2
2023/03/14 00:01:57;;;;;;;24.47;6.83;;;9.50;99.90;;;;;;4921764;28;20458;-76
2023/03/14 00:04:23;;;;;;;28.92;6.13;;;9.50;99.90;;;;;;4905832;28;20449;-76
2023/03/14 00:06:49;;;;;;;28.67;6.75;;;9.50;99.90;;;;;;4901089;28;20439;-75
2023/03/14 00:09:16;;;;;;;26.20;6.35;;;9.40;99.90;;;;;;4903087;28;20457;-75
2023/03/14 00:11:41;;;;;;;27.40;6.63;;;9.50;99.90;;;;;;4902702;28;20503;-76
2023/03/14 00:14:07;;;;;;;32.87;7.63;;;9.50;99.90;;;;;;4900871;28;20936;-76
2023/03/14 00:16:33;;;;;;;29.20;7.13;;;9.50;99.90;;;;;;4901492;28;20456;-76
2023/03/14 00:18:59;;;;;;;28.93;7.37;;;9.40;99.90;;;;;;4905628;28;21330;-76
2023/03/14 00:21:25;;;;;;;22.88;6.97;;;9.50;99.90;;;;;;4905365;28;20436;-75
2023/03/14 00:23:51;;;;;;;23.38;6.25;;;9.40;99.90;;;;;;4904068;28;20511;-75
2023/03/14 00:26:20;;;;;;;20.63;5.40;;;9.40;99.90;;;;;;4901280;28;20532;-76
2023/03/14 00:28:47;;;;;;;24.20;6.20;;;9.40;99.90;;;;;;4903611;28;21258;-76
2023/03/14 00:31:15;;;;;;;27.67;7.20;;;9.40;99.90;;;;;;4901285;28;20498;-75
2023/03/14 00:33:42;;;;;;;23.38;6.15;;;9.40;99.90;;;;;;4907607;28;20440;-75
2023/03/14 00:36:10;;;;;;;21.98;6.07;;;9.30;99.90;;;;;;4914606;28;20432;-74
2023/03/14 00:38:37;;;;;;;24.27;7.00;;;9.30;99.90;;;;;;4914891;28;20440;-76
2023/03/14 00:41:07;;;;;;;21.97;4.77;;;9.30;99.90;;;;;;4896750;28;20441;-76
2023/03/14 00:43:33;;;;;;;23.27;5.47;;;9.30;99.90;;;;;;4913322;28;20434;-75
2023/03/14 00:45:58;;;;;;;20.10;6.72;;;9.40;99.90;;;;;;4908187;28;22125;-76
2023/03/14 00:48:24;;;;;;;23.95;6.63;;;9.30;99.90;;;;;;4903330;28;20437;-75
2023/03/14 00:50:50;;;;;;;25.58;7.07;;;9.40;99.90;;;;;;4906360;28;20429;-76
2023/03/14 00:53:16;;;;;;;22.83;6.03;;;9.40;99.90;;;;;;4909951;28;20436;-76
2023/03/14 00:55:44;;;;;;;19.60;6.10;;;9.40;99.90;;;;;;4914867;28;20431;-76
2023/03/14 00:58:11;;;;;;;24.88;5.65;;;9.40;99.90;;;;;;4909131;28;20790;-74
2023/03/14 01:00:37;;;;;;;22.27;5.63;;;9.40;99.90;;;;;;4903707;28;20437;-75
2023/03/14 01:03:03;;;;;;;29.20;6.63;;;9.60;99.90;;;;;;4901934;28;20460;-75
2023/03/14 01:05:29;;;;;;;23.50;5.25;;;9.60;99.90;;;;;;4902064;28;20519;-75
2023/03/14 01:07:54;;;;;;;21.33;5.30;;;9.70;99.90;;;;;;4902066;28;20472;-75
2023/03/14 01:10:20;;;;;;;22.42;5.40;;;9.80;99.90;;;;;;4902928;28;20445;-75
2023/03/14 01:12:46;;;;;;;16.27;4.83;;;9.80;99.90;;;;;;4901954;28;20532;-74
2023/03/14 01:15:11;;;;;;;20.15;5.65;;;9.90;99.90;;;;;;4915211;28;20473;-76
2023/03/14 01:17:40;;;;;;;18.50;5.18;;;9.90;99.90;;;;;;4901677;28;20445;-77
2023/03/14 01:20:10;;;;;;;16.00;4.60;;;10.00;99.90;;;;;;4900220;28;20433;-76
2023/03/14 01:22:40;;;;;;;23.90;5.93;;;10.00;99.90;;;;;;4901899;28;20512;-75
2023/03/14 01:25:12;;;;;;;23.05;6.35;;;10.00;99.90;;;;;;4908683;28;20429;-75
2023/03/14 01:27:38;;;;;;;18.77;3.67;;;10.00;99.90;;;;;;4900328;28;20441;-76
2023/03/14 01:30:05;;;;;;;18.38;4.60;;;10.00;99.90;;;;;;4901334;28;20822;-75
2023/03/14 01:32:31;;;;;;;16.38;4.50;;;10.00;99.90;;;;;;4901559;28;20426;-74
2023/03/14 01:34:57;;;;;;;18.38;4.68;;;9.90;99.90;;;;;;4909812;28;20429;-75
2023/03/14 01:37:22;;;;;;;14.88;4.88;;;9.90;99.90;;;;;;4922876;28;20522;-75
2023/03/14 01:39:48;;;;;;;15.20;3.63;;;10.00;99.90;;;;;;4919949;28;20833;-75
2023/03/14 01:42:15;;;;;;;19.65;4.80;;;9.80;99.90;;;;;;4919861;28;20443;-76
2023/03/14 01:44:56;;;;;;;15.63;4.28;;;9.80;99.90;;;;;;4903840;28;20531;-76
2023/03/14 01:47:21;;;;;;;16.45;3.55;;;9.80;99.90;;;;;;4901364;28;20464;-76
2023/03/14 01:49:56;;;;;;;17.02;3.70;;;9.70;99.90;;;;;;4911101;28;20437;-75
2023/03/14 01:52:34;;;;;;;16.83;4.07;;;9.70;99.90;;;;;;4896170;28;20480;-74
2023/03/14 01:55:24;;;;;;;19.58;5.13;;;9.60;99.90;;;;;;4888993;28;20437;-77
2023/03/14 01:57:59;;;;;;;15.20;5.00;;;9.60;99.90;;;;;;4913761;28;20433;-74
2023/03/14 02:00:25;;;;;;;16.02;3.88;;;9.60;99.90;;;;;;4908824;28;21026;-76
2023/03/14 02:02:55;;;;;;;15.73;4.00;;;9.50;99.90;;;;;;4910987;28;20544;-75
2023/03/14 02:05:34;;;;;;;15.50;4.53;;;9.50;99.90;;;;;;4916472;28;20455;-75
2023/03/14 02:08:01;;;;;;;18.52;3.47;;;9.50;99.90;;;;;;4900172;28;20435;-76
2023/03/14 02:10:31;;;;;;;14.45;3.63;;;9.50;99.90;;;;;;4900558;28;20936;-76
2023/03/14 02:13:01;;;;;;;19.52;3.13;;;9.50;99.90;;;;;;4898684;28;20445;-75
2023/03/14 02:15:27;;;;;;;17.05;3.50;;;9.60;99.90;;;;;;4901535;28;20572;-76
2023/03/14 02:17:53;;;;;;;17.10;3.33;;;9.50;99.90;;;;;;4903943;28;20500;-75
2023/03/14 02:20:38;;;;;;;13.75;3.97;;;9.50;99.90;;;;;;4903797;28;20441;-76
2023/03/14 02:23:05;;;;;;;16.90;3.65;;;9.50;99.90;;;;;;4901345;28;20970;-75
2023/03/14 02:25:51;;;;;;;13.63;2.92;;;9.50;99.90;;;;;;4903464;28;20518;-75
2023/03/14 02:28:17;;;;;;;16.35;3.25;;;9.50;99.90;;;;;;4918456;28;20448;-76
2023/03/14 02:30:44;;;;;;;22.50;4.20;;;9.40;99.90;;;;;;4902323;28;20441;-75
2023/03/14 02:33:13;;;;;;;12.03;3.17;;;9.30;99.90;;;;;;4914444;28;20594;-75
2023/03/14 02:36:01;;;;;;;15.82;3.95;;;9.40;99.90;;;;;;4920851;28;20443;-75
2023/03/14 02:38:54;;;;;;;14.07;3.10;;;9.30;99.90;;;;;;4904801;28;20850;-76
2023/03/14 02:41:20;;;;;;;13.02;2.92;;;9.30;99.90;;;;;;4905263;28;20511;-77
2023/03/14 02:43:45;;;;;;;15.18;3.58;;;9.20;99.90;;;;;;4905383;28;20439;-78
2023/03/14 02:46:16;;;;;;;22.33;4.23;;;9.10;99.90;;;;;;4900313;29;20433;-74
2023/03/14 02:49:02;;;;;;;15.02;3.13;;;9.10;99.90;;;;;;4903309;28;20503;-75
2023/03/14 02:51:29;;;;;;;21.40;3.80;;;9.10;99.90;;;;;;4905113;28;21050;-75
2023/03/14 02:53:54;;;;;;;17.52;3.83;;;9.00;99.90;;;;;;4905584;28;20426;-75
2023/03/14 02:56:20;;;;;;;19.08;4.45;;;9.00;99.90;;;;;;4916240;28;20449;-76
2023/03/14 02:58:46;;;;;;;11.45;3.50;;;9.10;99.90;;;;;;4901907;28;20434;-75
2023/03/14 03:01:11;;;;;;;15.47;3.20;;;9.00;99.90;;;;;;4892603;28;20573;-75
2023/03/14 03:03:37;;;;;;;24.90;4.63;;;9.00;99.90;;;;;;4903627;28;20496;-75
2023/03/14 03:06:03;;;;;;;16.57;3.90;;;8.90;99.90;;;;;;4907806;28;20504;-75
2023/03/14 03:08:29;;;;;;;17.77;4.37;;;9.00;99.90;;;;;;4906908;28;20553;-74
2023/03/14 03:10:57;;;;;;;18.52;3.88;;;8.90;99.90;;;;;;4906801;28;20437;-75
2023/03/14 03:13:23;;;;;;;16.88;4.25;;;9.00;99.90;;;;;;4910868;28;20492;-74
2023/03/14 03:15:48;;;;;;;19.65;4.05;;;8.80;99.90;;;;;;4906281;28;21064;-75
2023/03/14 03:18:14;;;;;;;20.63;3.97;;;8.90;99.90;;;;;;4906852;28;20440;-74
2023/03/14 03:20:40;;;;;;;19.75;4.00;;;8.90;99.90;;;;;;4916757;28;20454;-75
2023/03/14 03:23:06;;;;;;;21.75;4.82;;;8.90;99.90;;;;;;4911206;28;20532;-75
2023/03/14 03:25:31;;;;;;;26.20;6.38;;;8.90;99.90;;;;;;4909606;29;20503;-75
2023/03/14 03:27:57;;;;;;;26.67;6.00;;;8.90;99.90;;;;;;4905407;28;20432;-76
2023/03/14 03:30:23;;;;;;;22.27;5.25;;;9.00;99.90;;;;;;4906188;29;20919;-75
2023/03/14 03:32:49;;;;;;;21.67;5.27;;;8.90;99.90;;;;;;4905516;28;20506;-77
2023/03/14 03:35:14;;;;;;;25.13;4.90;;;8.80;99.90;;;;;;4909049;28;20512;-75
2023/03/14 03:37:40;;;;;;;27.43;6.00;;;8.90;99.90;;;;;;4911642;29;20499;-75
2023/03/14 03:40:08;;;;;;;27.10;6.77;;;8.90;99.90;;;;;;4907816;29;20437;-75
2023/03/14 03:42:35;;;;;;;20.77;4.15;;;8.90;99.90;;;;;;4907114;28;20472;-75
2023/03/14 03:45:01;;;;;;;25.80;5.03;;;8.90;99.90;;;;;;4902865;28;20437;-74
2023/03/14 03:47:27;;;;;;;24.33;5.03;;;8.80;99.90;;;;;;4916296;28;20431;-75
2023/03/14 03:49:53;;;;;;;27.15;5.55;;;8.90;99.90;;;;;;4905879;29;20847;-75
2023/03/14 03:52:18;;;;;;;23.25;5.00;;;8.90;99.90;;;;;;4906284;28;20497;-76
2023/03/14 03:54:44;;;;;;;24.20;4.80;;;9.00;99.90;;;;;;4904368;28;20480;-75
2023/03/14 03:57:10;;;;;;;29.30;5.20;;;8.90;99.90;;;;;;4907344;28;20469;-75
2023/03/14 03:59:35;;;;;;;24.15;6.18;;;8.90;99.90;;;;;;4912180;28;20445;-75
2023/03/14 04:02:01;;;;;;;31.67;6.07;;;8.90;99.90;;;;;;4914868;28;20446;-76
2023/03/14 04:04:27;;;;;;;26.75;5.70;;;8.80;99.90;;;;;;4905739;28;20442;-75
2023/03/14 04:06:52;;;;;;;33.85;6.47;;;8.90;99.90;;;;;;4903297;28;20494;-76
2023/03/14 04:09:18;;;;;;;27.05;5.78;;;8.90;99.90;;;;;;4909426;28;20809;-76
2023/03/14 04:11:44;;;;;;;27.60;5.65;;;8.90;99.90;;;;;;4904180;28;20437;-74
2023/03/14 04:14:10;;;;;;;21.00;5.37;;;8.90;99.90;;;;;;4901275;28;20518;-75
2023/03/14 04:16:36;;;;;;;25.60;4.65;;;8.90;99.90;;;;;;4902413;28;21404;-76
2023/03/14 04:19:02;;;;;;;28.27;5.43;;;8.90;99.90;;;;;;4913518;28;20439;-75
2023/03/14 04:21:28;;;;;;;24.70;5.85;;;8.90;99.90;;;;;;4901425;28;20567;-76
2023/03/14 04:23:54;;;;;;;26.30;6.55;;;8.80;99.90;;;;;;4901827;28;20439;-76
2023/03/14 04:26:19;;;;;;;25.63;5.97;;;8.80;99.90;;;;;;4903161;28;20433;-76
2023/03/14 04:28:45;;;;;;;25.38;5.63;;;8.90;99.90;;;;;;4903634;28;20452;-76
2023/03/14 04:31:18;;;;;;;23.67;5.50;;;8.90;99.90;;;;;;4913406;28;20495;-75
2023/03/14 04:33:43;;;;;;;24.43;5.33;;;8.80;99.90;;;;;;4902297;28;20467;-76
2023/03/14 04:36:09;;;;;;;30.93;6.60;;;8.90;99.90;;;;;;4906889;28;21450;-75
2023/03/14 04:38:35;;;;;;;27.07;6.77;;;8.90;99.90;;;;;;4907039;28;20777;-76
2023/03/14 04:41:01;;;;;;;23.85;6.15;;;8.90;99.90;;;;;;4904125;28;20449;-75
2023/03/14 04:43:27;;;;;;;30.80;7.90;;;9.00;99.90;;;;;;4902607;28;20445;-76
2023/03/14 04:45:57;;;;;;;24.50;6.63;;;8.90;99.90;;;;;;4908609;28;20433;-75
2023/03/14 04:48:24;;;;;;;26.83;7.07;;;9.00;99.90;;;;;;4908404;28;20437;-75
2023/03/14 04:50:50;;;;;;;27.10;7.18;;;8.90;99.90;;;;;;4906349;28;20436;-76
2023/03/14 04:53:17;;;;;;;26.75;6.88;;;8.90;99.90;;;;;;4914663;28;20434;-74
2023/03/14 04:55:47;;;;;;;21.92;7.07;;;9.00;99.90;;;;;;4906214;28;20437;-75
2023/03/14 04:58:12;;;;;;;24.48;8.45;;;8.90;99.90;;;;;;4911017;28;20466;-75
2023/03/14 05:00:38;;;;;;;23.20;7.07;;;8.90;99.90;;;;;;4901838;28;20478;-76
2023/03/14 05:03:04;;;;;;;22.80;7.47;;;8.90;99.90;;;;;;4911453;28;20750;-76
2023/03/14 05:05:29;;;;;;;20.15;7.70;;;8.80;99.90;;;;;;4899196;28;21187;-76
2023/03/14 05:07:55;;;;;;;20.27;6.80;;;8.90;99.90;;;;;;4905783;28;20819;-78
2023/03/14 05:10:21;;;;;;;14.73;6.45;;;8.90;99.90;;;;;;4904643;28;20456;-76
2023/03/14 05:12:46;;;;;;;15.43;7.03;;;8.90;99.90;;;;;;4904904;28;20501;-76
2023/03/14 05:15:12;;;;;;;13.50;5.93;;;8.90;99.90;;;;;;4898926;28;20433;-76
2023/03/14 05:17:37;;;;;;;12.90;6.07;;;8.90;99.90;;;;;;4898105;28;20448;-76
2023/03/14 05:20:12;;;;;;;11.50;5.93;;;8.90;99.90;;;;;;4905251;28;20527;-75
2023/03/14 05:22:39;;;;;;;15.15;6.32;;;8.90;99.90;;;;;;4916589;28;20467;-76
2023/03/14 05:25:05;;;;;;;11.27;6.15;;;8.80;99.90;;;;;;4902032;28;20545;-78
2023/03/14 05:27:31;;;;;;;11.07;5.55;;;8.90;99.90;;;;;;4905786;28;20437;-74
2023/03/14 05:29:57;;;;;;;12.18;5.97;;;8.90;99.90;;;;;;4904698;28;20499;-75
2023/03/14 05:32:23;;;;;;;13.95;5.82;;;8.80;99.90;;;;;;4916411;28;20938;-74
2023/03/14 05:34:49;;;;;;;11.65;5.25;;;8.90;99.90;;;;;;4898707;28;20441;-77
2023/03/14 05:37:14;;;;;;;11.02;4.53;;;8.80;99.90;;;;;;4905119;28;20845;-75
2023/03/14 05:39:40;;;;;;;9.45;4.88;;;8.90;99.90;;;;;;4912375;28;21252;-76
2023/03/14 05:42:06;;;;;;;11.75;5.30;;;8.80;99.90;;;;;;4904043;28;20528;-77
2023/03/14 05:44:31;;;;;;;13.77;5.50;;;8.80;99.90;;;;;;4914148;28;20449;-75
2023/03/14 05:46:57;;;;;;;12.98;4.97;;;8.80;99.90;;;;;;4909508;28;20442;-75
2023/03/14 05:49:23;;;;;;;9.38;5.28;;;8.80;99.90;;;;;;4919881;28;20447;-75
2023/03/14 05:51:48;;;;;;;12.15;6.35;;;8.80;99.90;;;;;;4905573;28;20773;-75
2023/03/14 05:54:14;;;;;;;12.70;6.23;;;8.70;99.90;;;;;;4900645;28;20861;-75
2023/03/14 05:56:40;;;;;;;15.40;7.27;;;8.80;99.90;;;;;;4904779;28;20837;-75
2023/03/14 05:59:07;;;;;;;10.40;5.10;;;8.80;99.90;;;;;;4905006;28;20445;-75
2023/03/14 06:01:33;;;;;;;13.60;5.68;;;8.70;99.90;;;;;;4908308;28;20915;-75
2023/03/14 06:03:58;;;;;;;10.15;5.45;;;8.80;99.90;;;;;;4908251;28;20533;-73
2023/03/14 06:06:24;;;;;;;11.55;5.55;;;8.80;99.90;;;;;;4905193;28;20433;-73
2023/03/14 06:08:50;;;;;;;15.23;5.82;;;8.70;99.90;;;;;;4903683;28;20605;-74
2023/03/14 06:11:15;;;;;;;13.20;6.35;;;8.80;99.90;;;;;;4902491;28;20508;-73
2023/03/14 06:13:41;;;;;;;15.10;6.03;;;8.80;99.90;;;;;;4900982;28;20529;-74
2023/03/14 06:16:07;;;;;;;13.53;5.20;;;8.80;99.90;;;;;;4897386;28;20433;-74
2023/03/14 06:18:32;;;;;;;13.35;5.70;;;8.80;99.90;;;;;;4915274;28;20441;-73
2023/03/14 06:20:59;;;;;;;12.90;4.55;;;8.70;99.90;;;;;;4900496;28;20448;-74
2023/03/14 06:23:25;;;;;;;10.57;4.63;;;8.70;99.90;;;;;;4899243;28;20433;-74
2023/03/14 06:25:51;;;;;;;9.35;4.15;;;8.70;99.90;;;;;;4902486;28;20441;-74
2023/03/14 06:28:17;;;;;;;6.43;1.08;;;8.70;99.90;;;;;;4902534;28;20429;-73
2023/03/14 06:30:42;;;;;;;5.38;0.75;;;7.80;99.90;;;;;;4900451;28;20861;-74
2023/03/14 06:33:08;;;;;;;7.05;1.15;;;7.20;99.90;;;;;;4903467;28;20443;-75
2023/03/14 06:35:34;;;;;;;12.63;2.38;;;6.90;99.90;;;;;;4899540;28;20798;-74
2023/03/14 06:37:59;;;;;;;11.93;2.83;;;6.80;99.90;;;;;;4891521;28;21143;-74
2023/03/14 06:40:25;;;;;;;9.63;2.08;;;6.60;99.90;;;;;;4890270;28;20986;-73
2023/03/14 06:42:51;;;;;;;14.90;2.15;;;6.50;99.90;;;;;;4901518;28;22263;-73
2023/03/14 06:45:16;;;;;;;16.27;2.00;;;6.40;99.90;;;;;;4918510;28;21260;-75
2023/03/14 06:47:42;;;;;;;19.75;3.28;;;6.50;99.90;;;;;;4903556;28;20813;-74
2023/03/14 06:50:10;;;;;;;12.00;2.47;;;6.40;99.90;;;;;;4923060;29;20457;-74
2023/03/14 06:52:36;;;;;;;9.82;1.75;;;6.10;99.90;;;;;;4903106;28;20846;-73
2023/03/14 06:55:02;;;;;;;15.10;2.00;;;5.80;99.90;;;;;;4907195;28;20425;-74
2023/03/14 06:57:27;;;;;;;14.55;1.70;;;5.60;99.90;;;;;;4907980;28;21075;-74
2023/03/14 06:59:53;;;;;;;11.20;1.60;;;5.70;99.90;;;;;;4912107;28;20444;-75
2023/03/14 07:02:19;;;;;;;6.83;1.10;;;5.30;99.90;;;;;;4907999;28;20445;-76
2023/03/14 07:04:44;;;;;;;5.67;1.00;;;5.10;99.90;;;;;;4906150;28;20789;-76
2023/03/14 07:07:10;;;;;;;11.33;1.40;;;5.10;99.90;;;;;;4908489;28;20949;-74
2023/03/14 07:09:36;;;;;;;6.30;0.73;;;5.10;99.90;;;;;;4928302;28;20794;-76
2023/03/14 07:12:03;;;;;;;4.47;0.87;;;4.80;99.90;;;;;;4909719;28;20939;-75
2023/03/14 07:14:30;;;;;;;7.30;1.15;;;4.80;99.90;;;;;;4906694;28;20485;-76
2023/03/14 07:16:55;;;;;;;8.02;1.52;;;4.70;99.90;;;;;;4908138;28;20583;-74
2023/03/14 07:19:21;;;;;;;5.78;1.73;;;4.70;99.90;;;;;;4914035;28;20516;-76
2023/03/14 07:21:47;;;;;;;8.77;0.93;;;4.70;99.90;;;;;;4915653;29;20447;-76
2023/03/14 07:24:13;;;;;;;4.97;0.63;;;4.60;99.90;;;;;;4910559;28;20441;-73
2023/03/14 07:26:38;;;;;;;4.93;0.90;;;4.70;99.90;;;;;;4916391;28;20437;-75
2023/03/14 07:29:04;;;;;;;7.97;1.80;;;4.70;99.90;;;;;;4906249;28;20445;-75
2023/03/14 07:31:30;;;;;;;4.88;0.77;;;4.80;99.90;;;;;;4908663;28;20441;-76
2023/03/14 07:33:56;;;;;;;4.20;0.75;;;4.70;99.90;;;;;;4905506;29;20433;-73
2023/03/14 07:36:22;;;;;;;7.30;1.10;;;4.70;99.90;;;;;;4889790;28;20430;-73
2023/03/14 07:38:47;;;;;;;6.37;1.03;;;4.70;99.90;;;;;;4904703;28;20524;-73
2023/03/14 07:41:13;;;;;;;5.27;0.80;;;4.60;99.90;;;;;;4906047;28;20523;-74
2023/03/14 07:43:39;;;;;;;5.60;1.05;;;4.80;99.90;;;;;;4902668;28;20914;-74
2023/03/14 07:46:05;;;;;;;4.90;0.82;;;4.80;99.90;;;;;;4903586;28;20600;-76
2023/03/14 07:48:31;;;;;;;5.75;0.73;;;4.70;99.90;;;;;;4903202;28;20724;-74
2023/03/14 07:50:57;;;;;;;7.83;1.60;;;4.90;99.90;;;;;;4907977;28;20515;-76
2023/03/14 07:53:23;;;;;;;7.53;0.83;;;4.70;99.90;;;;;;4906898;28;20440;-75
2023/03/14 07:55:51;;;;;;;6.43;1.10;;;4.80;99.90;;;;;;4908625;29;20433;-75
2023/03/14 07:58:17;;;;;;;4.55;1.10;;;4.90;99.90;;;;;;4908114;28;20437;-75
2023/03/14 08:00:44;;;;;;;11.75;1.42;;;4.80;99.90;;;;;;4907981;29;20428;-74
2023/03/14 08:03:09;;;;;;;6.22;1.02;;;4.80;99.90;;;;;;4905592;28;20520;-76
2023/03/14 08:05:38;;;;;;;6.55;1.23;;;5.00;99.90;;;;;;4919598;28;20571;-73
2023/03/14 08:08:04;;;;;;;13.57;2.20;;;5.10;99.90;;;;;;4908429;28;20795;-76
2023/03/14 08:10:31;;;;;;;7.43;1.27;;;5.30;99.90;;;;;;4907557;29;20429;-73
2023/03/14 08:12:58;;;;;;;5.35;1.00;;;5.20;99.90;;;;;;4907523;28;20437;-75
2023/03/14 08:15:24;;;;;;;3.85;1.20;;;5.20;99.90;;;;;;4904365;28;20519;-75
2023/03/14 08:17:51;;;;;;;9.45;2.25;;;5.20;99.90;;;;;;4906051;28;20992;-73
2023/03/14 08:20:18;;;;;;;8.23;1.30;;;5.40;99.90;;;;;;4907692;28;20445;-74
2023/03/14 08:22:43;;;;;;;7.30;1.30;;;5.40;99.90;;;;;;4905343;29;20447;-75
2023/03/14 08:25:09;;;;;;;7.05;1.65;;;5.30;99.90;;;;;;4905142;28;20457;-75
2023/03/14 08:27:37;;;;;;;11.73;2.10;;;5.30;99.90;;;;;;4906600;28;20429;-75
2023/03/14 08:30:04;;;;;;;9.27;2.20;;;5.40;99.90;;;;;;4907102;28;20962;-76
2023/03/14 08:32:30;;;;;;;9.95;2.50;;;5.50;99.90;;;;;;4906272;28;20437;-77
2023/03/14 08:34:56;;;;;;;12.27;2.92;;;5.50;99.90;;;;;;4907951;28;20776;-74
2023/03/14 08:37:22;;;;;;;12.63;2.97;;;5.70;99.90;;;;;;4905299;28;20437;-75
2023/03/14 08:39:47;;;;;;;13.32;2.50;;;5.70;99.90;;;;;;4905970;28;20426;-74
2023/03/14 08:42:13;;;;;;;10.93;2.63;;;5.70;99.90;;;;;;4907677;28;21248;-77
2023/03/14 08:44:39;;;;;;;17.48;2.80;;;5.70;99.90;;;;;;4919015;28;20810;-78
2023/03/14 08:47:04;;;;;;;17.88;4.07;;;5.70;99.90;;;;;;4906155;28;20792;-74
2023/03/14 08:49:30;;;;;;;13.40;3.00;;;5.80;99.90;;;;;;4905816;28;20449;-76
2023/03/14 08:51:56;;;;;;;23.37;4.33;;;6.10;99.90;;;;;;4907035;28;20432;-76
2023/03/14 08:54:21;;;;;;;11.33;3.43;;;6.00;99.90;;;;;;4907617;28;20975;-76
2023/03/14 08:56:47;;;;;;;18.03;3.87;;;6.00;99.90;;;;;;4905892;28;21215;-76
2023/03/14 08:59:13;;;;;;;16.23;3.60;;;6.00;99.90;;;;;;4907482;28;20515;-76
2023/03/14 09:01:38;;;;;;;17.65;3.28;;;6.10;99.90;;;;;;4908278;28;20749;-75
2023/03/14 09:04:04;;;;;;;17.67;4.43;;;6.30;99.90;;;;;;4907219;28;20449;-78
2023/03/14 09:06:30;;;;;;;16.10;3.23;;;6.30;99.90;;;;;;4918129;28;20522;-76
2023/03/14 09:08:55;;;;;;;21.23;3.67;;;6.20;99.90;;;;;;4906354;28;20473;-76
2023/03/14 09:11:21;;;;;;;20.97;4.10;;;6.30;99.90;;;;;;4905969;28;20516;-76
2023/03/14 09:13:48;;;;;;;19.93;3.50;;;6.30;99.90;;;;;;4906100;28;21067;-76
2023/03/14 09:16:14;;;;;;;16.70;3.75;;;6.20;99.90;;;;;;4907820;29;20406;-75
2023/03/14 09:18:40;;;;;;;14.90;3.40;;;5.80;99.90;;;;;;4907435;29;20461;-77
2023/03/14 09:21:06;;;;;;;19.35;4.05;;;5.80;99.90;;;;;;4909458;28;20457;-74
2023/03/14 09:23:31;;;;;;;19.15;4.95;;;5.80;99.90;;;;;;4912738;29;20505;-74
2023/03/14 09:25:58;;;;;;;18.70;4.00;;;5.90;99.90;;;;;;4919306;28;20429;-75
2023/03/14 09:28:24;;;;;;;23.80;5.45;;;5.90;99.90;;;;;;4907215;28;20432;-75
2023/03/14 09:30:50;;;;;;;20.83;4.55;;;6.00;99.90;;;;;;4906789;29;20444;-76
2023/03/14 09:33:16;;;;;;;21.55;4.63;;;5.90;99.90;;;;;;4907383;29;20874;-74
2023/03/14 09:35:42;;;;;;;21.17;4.30;;;5.90;99.90;;;;;;4905717;28;20465;-76
2023/03/14 09:38:08;;;;;;;17.83;3.83;;;5.90;99.90;;;;;;4906535;28;20465;-75
2023/03/14 09:40:37;;;;;;;18.25;3.88;;;6.00;99.90;;;;;;4905133;28;20429;-75
2023/03/14 09:43:04;;;;;;;23.33;3.58;;;6.10;99.90;;;;;;4902651;28;20457;-73
2023/03/14 09:45:34;;;;;;;24.00;5.07;;;6.10;99.90;;;;;;4900506;28;20554;-74
2023/03/14 09:48:04;;;;;;;21.52;4.85;;;6.20;99.90;;;;;;4904924;28;20511;-74
2023/03/14 09:50:46;;;;;;;22.45;4.25;;;6.00;99.90;;;;;;4904801;28;20778;-74
2023/03/14 09:53:19;;;;;;;21.93;4.40;;;6.10;99.90;;;;;;4906160;28;20467;-74
2023/03/14 09:55:46;;;;;;;19.93;4.37;;;6.10;99.90;;;;;;4908929;29;20433;-74
2023/03/14 09:58:17;;;;;;;24.70;5.33;;;6.10;99.90;;;;;;4907519;29;20484;-73
2023/03/14 10:00:44;;;;;;;17.65;4.05;;;6.20;99.90;;;;;;4906265;28;20473;-73
2023/03/14 10:03:12;;;;;;;21.67;4.37;;;6.30;99.90;;;;;;4904691;28;20515;-73
2023/03/14 10:05:39;;;;;;;18.98;3.65;;;6.30;99.90;;;;;;4905320;29;20449;-72
2023/03/14 10:08:05;;;;;;;23.70;4.90;;;6.50;99.90;;;;;;4895887;28;20429;-73
2023/03/14 10:10:32;;;;;;;26.73;4.87;;;6.40;99.90;;;;;;4907513;28;20525;-71
2023/03/14 10:13:24;;;;;;;17.02;3.42;;;6.60;99.90;;;;;;4904082;28;20417;-73
2023/03/14 10:16:05;;;;;;;12.88;3.25;;;6.70;99.90;;;;;;4907031;28;20441;-72
2023/03/14 10:18:34;;;;;;;16.77;3.83;;;6.60;99.90;;;;;;4904378;28;20468;-73
2023/03/14 10:21:07;;;;;;;16.77;4.15;;;6.50;99.90;;;;;;4888593;29;20427;-73
2023/03/14 10:23:34;;;;;;;14.30;2.67;;;6.50;99.90;;;;;;4906790;28;20999;-73
2023/03/14 10:26:12;;;;;;;16.33;3.30;;;6.50;99.90;;;;;;4906764;29;20439;-74
2023/03/14 10:28:52;;;;;;;15.68;3.97;;;6.40;99.90;;;;;;4900605;29;20466;-73
2023/03/14 10:31:18;;;;;;;13.63;3.47;;;6.40;99.90;;;;;;4905683;28;20452;-74
2023/03/14 10:33:59;;;;;;;13.70;3.08;;;6.40;99.90;;;;;;4910694;29;20459;-74
2023/03/14 10:36:29;;;;;;;14.25;3.42;;;6.50;99.90;;;;;;4911449;29;20421;-75
2023/03/14 10:39:23;;;;;;;14.18;3.33;;;6.60;99.90;;;;;;4902996;28;20924;-75
2023/03/14 10:41:53;;;;;;;14.35;2.75;;;6.60;99.90;;;;;;4925259;28;20441;-75
2023/03/14 10:44:22;;;;;;;11.63;2.75;;;6.50;99.90;;;;;;4903560;28;20491;-75
2023/03/14 10:46:59;;;;;;;12.37;2.53;;;6.20;99.90;;;;;;4905635;28;20824;-75
2023/03/14 10:49:29;;;;;;;11.45;3.63;;;6.30;99.90;;;;;;4903295;28;20492;-75
2023/03/14 10:51:55;;;;;;;10.93;2.65;;;6.50;99.90;;;;;;4903822;28;20430;-76
2023/03/14 10:54:25;;;;;;;10.43;2.28;;;6.70;99.90;;;;;;4892799;28;20458;-76
2023/03/14 10:57:00;;;;;;;12.50;2.38;;;6.60;99.90;;;;;;4903403;28;20440;-75
2023/03/14 10:59:30;;;;;;;11.32;1.83;;;6.80;99.90;;;;;;4900288;28;20444;-75
2023/03/14 11:02:02;;;;;;;8.85;1.80;;;6.60;99.90;;;;;;4905978;28;20480;-76
2023/03/14 11:05:01;;;;;;;14.88;3.08;;;7.20;99.90;;;;;;4902337;28;20531;-75
2023/03/14 11:07:40;;;;;;;12.52;2.58;;;7.00;99.90;;;;;;4900116;28;21066;-76
2023/03/14 11:10:32;;;;;;;9.60;2.40;;;6.90;99.90;;;;;;4902045;28;20467;-75
2023/03/14 11:13:26;;;;;;;8.85;2.17;;;6.80;99.90;;;;;;4905651;28;20587;-76
2023/03/14 11:16:06;;;;;;;7.40;2.05;;;6.40;99.90;;;;;;4901971;28;20520;-75
2023/03/14 11:19:10;;;;;;;11.23;1.52;;;6.40;99.90;;;;;;4904521;28;21344;-76
2023/03/14 11:21:49;;;;;;;7.78;1.92;;;6.90;99.90;;;;;;4907492;28;20449;-75
2023/03/14 11:24:39;;;;;;;7.28;1.80;;;7.00;99.90;;;;;;4903429;28;20459;-76
2023/03/14 11:27:25;;;;;;;6.88;1.27;;;7.10;99.90;;;;;;4915419;28;20951;-76
2023/03/14 11:29:57;;;;;;;5.07;1.20;;;6.90;99.90;;;;;;4900055;28;20492;-78
2023/03/14 11:32:45;;;;;;;5.72;1.15;;;7.00;99.90;;;;;;4902722;28;20438;-76
2023/03/14 11:35:28;;;;;;;4.75;1.05;;;6.90;99.90;;;;;;4905010;28;20495;-74
2023/03/14 11:38:15;;;;;;;11.85;1.83;;;7.00;99.90;;;;;;4904068;28;20438;-76
2023/03/14 11:40:42;;;;;;;6.25;1.63;;;6.80;99.90;;;;;;4901871;28;20453;-75
2023/03/14 11:43:20;;;;;;;9.00;1.20;;;6.70;99.90;;;;;;4902434;28;20931;-75
2023/03/14 11:45:50;;;;;;;8.20;1.48;;;6.60;99.90;;;;;;4919507;28;20434;-75
2023/03/14 11:48:25;;;;;;;8.18;1.95;;;6.50;99.90;;;;;;4909030;28;20461;-75
2023/03/14 11:50:54;;;;;;;10.70;1.98;;;6.50;99.90;;;;;;4906391;28;20449;-76
2023/03/14 11:53:43;;;;;;;10.35;2.08;;;6.50;99.90;;;;;;4899238;29;20907;-76
2023/03/14 11:56:19;;;;;;;8.32;1.88;;;6.70;99.90;;;;;;4905057;28;20975;-75
2023/03/14 11:59:25;;;;;;;7.55;1.75;;;7.00;99.90;;;;;;4907070;28;20437;-75
2023/03/14 12:02:16;;;;;;;6.38;2.33;;;7.00;99.90;;;;;;4959604;28;20414;-76
2023/03/14 12:05:02;;;;;;;12.02;2.13;;;7.00;99.90;;;;;;4907432;29;20450;-76
2023/03/14 12:07:48;;;;;;;11.82;2.15;;;6.90;99.90;;;;;;4936538;28;21022;-75
2023/03/14 12:10:14;;;;;;;8.50;1.67;;;6.60;99.90;;;;;;4906212;28;20441;-75
2023/03/14 12:12:40;;;;;;;8.32;1.70;;;6.80;99.90;;;;;;4909539;28;20414;-75
2023/03/14 12:15:21;;;;;;;10.27;1.88;;;6.70;99.90;;;;;;4907460;28;20473;-76
2023/03/14 12:17:53;;;;;;;7.95;1.98;;;6.40;99.90;;;;;;4908415;28;20433;-74
2023/03/14 12:20:22;;;;;;;12.98;2.25;;;6.40;99.90;;;;;;4908728;29;20441;-75
2023/03/14 12:22:49;;;;;;;10.17;1.50;;;6.70;99.90;;;;;;4906971;28;20505;-75
2023/03/14 12:25:33;;;;;;;5.17;1.30;;;7.00;99.90;;;;;;4905191;28;20449;-77
2023/03/14 12:27:59;;;;;;;8.38;1.33;;;7.00;99.90;;;;;;4907576;28;20429;-77
2023/03/14 12:30:31;;;;;;;12.25;2.10;;;7.00;99.90;;;;;;4909131;28;20436;-81
2023/03/14 12:33:18;;;;;;;6.10;1.65;;;6.80;99.90;;;;;;4908919;28;20496;-78
2023/03/14 12:35:45;;;;;;;9.73;1.95;;;6.90;99.90;;;;;;4906930;28;20429;-78
2023/03/14 12:38:35;;;;;;;8.30;2.28;;;7.10;99.90;;;;;;4906892;28;20507;-78
2023/03/14 12:41:06;;;;;;;8.50;1.73;;;7.40;99.90;;;;;;4903932;28;20438;-78
2023/03/14 12:43:34;;;;;;;9.27;2.05;;;7.40;99.90;;;;;;4903091;28;20469;-78
2023/03/14 12:46:19;;;;;;;10.00;2.87;;;7.70;99.90;;;;;;4902704;28;20442;-78
2023/03/14 12:48:56;;;;;;;12.43;2.58;;;7.50;99.90;;;;;;4901418;28;20421;-78
2023/03/14 12:51:37;;;;;;;10.43;2.28;;;7.20;99.90;;;;;;4903999;28;20432;-76
2023/03/14 12:54:26;;;;;;;9.55;2.17;;;7.20;99.90;;;;;;4903701;28;20467;-76
2023/03/14 12:57:10;;;;;;;8.38;2.13;;;7.30;99.90;;;;;;4907460;28;20449;-76
2023/03/14 12:59:40;;;;;;;6.60;1.85;;;7.40;99.90;;;;;;4906637;28;20530;-74